Time;durP1;ratioP1;P1;durP2;ratioP2;P2;SDS_P1;SDS_P2;PMS_P1;PMS_P2;Temp;Humidity;BMP_temperature;BMP_pressure;BME280_temperature;BME280_humidity;BME280_pressure;Samples;Min_cycle;Max_cycle;Signal;HPM_P1;HPM_P2
2021/12/07 00:00:58;;;;;;;30.45;15.90;;;-0.50;99.90;;;;;;5100274;28;20067;-81
2021/12/07 00:03:24;;;;;;;30.48;16.45;;;-0.40;99.90;;;;;;5100931;28;20078;-81
2021/12/07 00:05:51;;;;;;;31.17;16.33;;;-0.30;99.90;;;;;;5117768;28;20454;-80
2021/12/07 00:08:18;;;;;;;28.17;15.73;;;-0.30;99.90;;;;;;5098789;28;20089;-81
2021/12/07 00:10:45;;;;;;;35.10;16.73;;;-0.20;99.90;;;;;;5099833;28;20122;-81
2021/12/07 00:13:12;;;;;;;33.60;16.30;;;-0.10;99.90;;;;;;5100846;28;20055;-81
2021/12/07 00:15:39;;;;;;;34.55;16.80;;;0.00;99.90;;;;;;5117528;28;20139;-81
2021/12/07 00:18:06;;;;;;;32.72;17.42;;;0.00;99.90;;;;;;5115147;28;20483;-81
2021/12/07 00:20:33;;;;;;;34.88;16.77;;;0.10;99.90;;;;;;5101061;28;20131;-80
2021/12/07 00:23:06;;;;;;;32.13;16.95;;;0.00;99.90;;;;;;5100437;28;20297;-81
2021/12/07 00:25:33;;;;;;;;;;;0.10;99.90;;;;;;5099328;28;20128;-81
2021/12/07 00:28:00;;;;;;;30.35;16.58;;;0.20;99.90;;;;;;5100187;28;20368;-81
2021/12/07 00:30:33;;;;;;;32.55;16.48;;;0.30;99.90;;;;;;5102711;28;20150;-81
2021/12/07 00:33:14;;;;;;;33.17;16.52;;;0.30;99.90;;;;;;5099352;28;20142;-81
2021/12/07 00:35:42;;;;;;;36.13;16.63;;;0.30;99.90;;;;;;5101208;28;20131;-81
2021/12/07 00:38:14;;;;;;;24.45;14.10;;;0.30;99.90;;;;;;5103642;28;20043;-81
2021/12/07 00:40:42;;;;;;;30.73;14.80;;;0.40;99.90;;;;;;5119997;28;20043;-81
2021/12/07 00:43:10;;;;;;;30.92;14.50;;;0.50;99.90;;;;;;5123603;28;20063;-81
2021/12/07 00:45:38;;;;;;;27.38;14.73;;;0.50;99.90;;;;;;5119064;28;20100;-81
2021/12/07 00:48:07;;;;;;;24.33;13.57;;;0.60;99.90;;;;;;5104399;28;20100;-81
2021/12/07 00:50:37;;;;;;;28.58;14.77;;;0.60;99.90;;;;;;5101986;28;20079;-82
2021/12/07 00:53:05;;;;;;;31.35;15.57;;;0.60;99.90;;;;;;5120231;28;20054;-81
2021/12/07 00:55:36;;;;;;;25.67;14.63;;;0.40;99.90;;;;;;5120245;28;20522;-81
2021/12/07 00:58:13;;;;;;;21.10;13.45;;;0.40;99.90;;;;;;5104943;28;20579;-81
2021/12/07 01:00:40;;;;;;;26.02;13.93;;;0.60;99.90;;;;;;5101431;28;20051;-82
2021/12/07 01:03:07;;;;;;;26.98;14.45;;;0.50;99.90;;;;;;5121026;28;20439;-82
2021/12/07 01:05:36;;;;;;;21.33;12.43;;;0.40;99.90;;;;;;5101063;28;20058;-81
2021/12/07 01:24:40;;;;;;;26.42;15.18;;;-0.20;99.90;;;;;;5127981;28;20068;-82
2021/12/07 01:27:10;;;;;;;25.42;14.93;;;-0.20;99.90;;;;;;5127648;28;20082;-81
2021/12/07 01:29:38;;;;;;;28.15;15.07;;;-0.20;99.90;;;;;;5109923;28;20071;-81
2021/12/07 01:32:19;;;;;;;31.27;16.35;;;-0.30;99.90;;;;;;5112819;28;20099;-82
2021/12/07 01:37:38;;;;;;;30.08;16.65;;;-0.40;99.90;;;;;;5128463;28;20086;-81
2021/12/07 01:49:34;;;;;;;27.13;17.20;;;-0.30;99.90;;;;;;5122236;22;20071;-80
2021/12/07 01:59:33;;;;;;;31.23;17.92;;;-0.30;99.90;;;;;;5105020;28;20072;-80
2021/12/07 02:02:03;;;;;;;32.08;17.08;;;-0.30;99.90;;;;;;5104043;28;20048;-80
2021/12/07 02:04:31;;;;;;;23.65;15.52;;;-0.30;99.90;;;;;;5104618;28;20048;-80
2021/12/07 02:06:58;;;;;;;29.48;15.95;;;-0.30;99.90;;;;;;5086231;28;20052;-81
2021/12/07 02:09:25;;;;;;;34.58;16.35;;;-0.30;99.90;;;;;;5087037;28;20075;-81
2021/12/07 02:11:59;;;;;;;38.70;17.15;;;-0.40;99.90;;;;;;5086177;28;20048;-81
2021/12/07 02:14:27;;;;;;;28.52;16.88;;;-0.30;99.90;;;;;;5087203;28;20475;-81
2021/12/07 02:16:57;;;;;;;31.13;16.33;;;-0.30;99.90;;;;;;5088224;28;20070;-81
2021/12/07 02:19:24;;;;;;;28.02;16.75;;;-0.30;99.90;;;;;;5088504;28;20493;-80
2021/12/07 02:21:53;;;;;;;36.28;18.80;;;-0.40;99.90;;;;;;5088889;28;20047;-80
2021/12/07 02:24:20;;;;;;;31.77;18.15;;;-0.40;99.90;;;;;;5084404;28;20060;-80
2021/12/07 02:26:48;;;;;;;36.22;19.08;;;-0.40;99.90;;;;;;5084627;28;20461;-80
2021/12/07 02:29:17;;;;;;;36.20;18.60;;;-0.50;99.90;;;;;;5084079;28;20139;-80
2021/12/07 02:31:44;;;;;;;32.10;19.35;;;-0.40;99.90;;;;;;5083416;28;20059;-81
2021/12/07 02:34:12;;;;;;;37.75;19.17;;;-0.40;99.90;;;;;;5082994;28;20081;-81
2021/12/07 02:36:39;;;;;;;33.85;18.27;;;-0.40;99.90;;;;;;5100824;28;20615;-81
2021/12/07 02:39:08;;;;;;;34.38;18.75;;;-0.40;99.90;;;;;;5083317;28;20131;-81
2021/12/07 02:41:35;;;;;;;37.40;20.65;;;-0.40;99.90;;;;;;5101370;28;20074;-81
2021/12/07 02:44:06;;;;;;;33.58;19.92;;;-0.20;99.90;;;;;;5083194;28;20131;-81
2021/12/07 02:46:35;;;;;;;33.10;19.67;;;-0.10;99.90;;;;;;5081154;28;20105;-80
2021/12/07 02:49:07;;;;;;;33.55;18.20;;;0.10;99.90;;;;;;5081205;28;20714;-81
2021/12/07 02:51:34;;;;;;;28.50;18.00;;;0.20;99.90;;;;;;5081722;28;20055;-80
2021/12/07 02:54:01;;;;;;;25.40;16.83;;;0.40;99.90;;;;;;5100037;28;20044;-81
2021/12/07 02:56:28;;;;;;;21.42;14.45;;;0.50;99.90;;;;;;5082136;28;20044;-81
2021/12/07 02:58:59;;;;;;;20.67;13.82;;;0.60;99.90;;;;;;5082465;28;20079;-79
2021/12/07 03:01:32;;;;;;;20.52;14.15;;;0.70;99.90;;;;;;5101065;28;20075;-81
2021/12/07 03:06:41;;;;;;;18.05;13.73;;;0.80;99.90;;;;;;5102033;28;20051;-81
2021/12/07 03:28:12;;;;;;;22.42;13.52;;;1.10;99.90;;;;;;5099248;28;20130;-81
2021/12/07 03:30:38;;;;;;;21.40;14.18;;;1.10;99.90;;;;;;5081699;28;20083;-81
2021/12/07 03:33:06;;;;;;;21.05;14.40;;;1.10;99.90;;;;;;5099441;28;20500;-79
2021/12/07 03:35:33;;;;;;;18.80;13.00;;;1.10;99.90;;;;;;5099751;28;20048;-81
2021/12/07 03:38:00;;;;;;;22.63;13.65;;;1.10;99.90;;;;;;5080401;28;20074;-81
2021/12/07 03:40:27;;;;;;;25.20;16.00;;;1.10;99.90;;;;;;5097532;28;20072;-81
2021/12/07 03:42:54;;;;;;;20.80;14.18;;;1.10;99.90;;;;;;5080097;28;20130;-81
2021/12/07 03:45:20;;;;;;;26.13;14.02;;;1.20;99.90;;;;;;5079986;28;20054;-80
2021/12/07 03:47:47;;;;;;;24.33;15.30;;;1.20;99.90;;;;;;5079710;28;20086;-81
2021/12/07 03:50:14;;;;;;;20.38;14.45;;;1.20;99.90;;;;;;5079901;28;20506;-81
2021/12/07 03:52:41;;;;;;;19.35;14.15;;;1.20;99.90;;;;;;5080300;28;20071;-81
2021/12/07 03:55:08;;;;;;;19.17;13.35;;;1.20;99.90;;;;;;5097735;28;20135;-81
2021/12/07 03:57:36;;;;;;;18.73;13.57;;;1.30;99.90;;;;;;5080186;28;20071;-80
2021/12/07 04:00:07;;;;;;;17.45;13.32;;;1.30;99.90;;;;;;5081620;28;20104;-78
2021/12/07 04:02:39;;;;;;;19.98;12.02;;;1.30;99.90;;;;;;5081358;28;20135;-78
2021/12/07 04:05:12;;;;;;;14.20;11.52;;;1.40;99.90;;;;;;5099607;28;20047;-78
2021/12/07 04:07:40;;;;;;;15.13;11.60;;;1.40;99.90;;;;;;5099617;28;20072;-78
2021/12/07 04:10:09;;;;;;;16.88;11.85;;;1.40;99.90;;;;;;5081840;28;20136;-79
2021/12/07 04:12:37;;;;;;;12.68;10.30;;;1.50;99.90;;;;;;5100568;28;20056;-78
2021/12/07 04:15:05;;;;;;;14.45;10.07;;;1.50;99.90;;;;;;5102104;28;20078;-78
2021/12/07 04:17:32;;;;;;;12.52;10.40;;;1.60;99.90;;;;;;5085643;28;20074;-78
2021/12/07 04:19:58;;;;;;;11.88;9.75;;;1.60;99.90;;;;;;5083887;28;20079;-79
2021/12/07 04:22:25;;;;;;;10.27;9.02;;;1.60;99.90;;;;;;5082336;28;20067;-79
2021/12/07 04:24:52;;;;;;;10.75;9.02;;;1.70;99.90;;;;;;5084182;28;20071;-78
2021/12/07 04:27:23;;;;;;;13.45;9.88;;;1.70;99.90;;;;;;5085009;28;20080;-79
2021/12/07 04:29:50;;;;;;;10.80;8.90;;;1.70;99.90;;;;;;5101682;28;20071;-78
2021/12/07 04:32:17;;;;;;;11.85;9.60;;;1.70;99.90;;;;;;5101690;28;20472;-79
2021/12/07 04:34:44;;;;;;;11.35;9.00;;;1.70;99.90;;;;;;5084994;28;20074;-81
2021/12/07 04:37:11;;;;;;;11.43;8.85;;;1.80;99.90;;;;;;5097304;28;20079;-80
2021/12/07 04:39:38;;;;;;;9.38;8.30;;;1.80;99.90;;;;;;5079028;28;20094;-81
2021/12/07 04:42:05;;;;;;;12.15;8.73;;;1.80;99.90;;;;;;5095387;28;20127;-80
2021/12/07 04:44:37;;;;;;;8.98;8.07;;;1.80;99.90;;;;;;5079115;28;20076;-78
2021/12/07 04:47:14;;;;;;;13.18;9.80;;;1.80;99.90;;;;;;5094545;28;20090;-81
2021/12/07 04:49:57;;;;;;;9.27;8.25;;;1.80;99.90;;;;;;5078527;28;20071;-79
2021/12/07 04:57:59;;;;;;;9.73;8.02;;;1.80;99.90;;;;;;5099409;28;20052;-81
2021/12/07 05:00:28;;;;;;;9.20;7.57;;;1.80;99.90;;;;;;5099422;28;20089;-81
2021/12/07 05:03:02;;;;;;;9.27;8.10;;;1.80;99.90;;;;;;5082058;28;20151;-81
2021/12/07 05:05:39;;;;;;;9.60;7.68;;;1.80;99.90;;;;;;5080241;28;20052;-81
2021/12/07 05:08:10;;;;;;;8.05;7.25;;;1.80;99.90;;;;;;5080493;28;20074;-81
2021/12/07 05:13:27;;;;;;;8.55;7.63;;;1.70;99.90;;;;;;5073941;28;20048;-89
2021/12/07 05:16:06;;;;;;;16.38;8.23;;;1.70;99.90;;;;;;5088129;28;20056;-87
2021/12/07 05:24:12;;;;;;;8.80;7.40;;;1.70;99.90;;;;;;5072178;28;20040;-87
2021/12/07 05:40:09;;;;;;;7.90;6.80;;;1.80;99.90;;;;;;5074633;28;20076;-88
2021/12/07 05:42:38;;;;;;;10.98;7.53;;;1.80;99.90;;;;;;5073933;28;20063;-88
2021/12/07 05:45:09;;;;;;;7.68;6.80;;;1.80;99.90;;;;;;5073447;28;20044;-88
2021/12/07 05:47:36;;;;;;;8.30;7.30;;;1.80;99.90;;;;;;5073936;28;20091;-88
2021/12/07 05:50:05;;;;;;;9.40;7.07;;;1.80;99.90;;;;;;5073881;28;20041;-88
2021/12/07 05:52:32;;;;;;;8.45;6.80;;;1.80;99.90;;;;;;5074665;28;20385;-88
2021/12/07 05:54:59;;;;;;;10.20;7.60;;;1.80;99.90;;;;;;5073190;28;20095;-88
2021/12/07 05:57:26;;;;;;;7.22;6.47;;;1.80;99.90;;;;;;5080120;28;20056;-87
2021/12/07 05:59:53;;;;;;;8.05;6.90;;;1.80;99.90;;;;;;5082698;28;20106;-88
2021/12/07 06:02:20;;;;;;;9.50;6.82;;;1.80;99.90;;;;;;5077685;28;20139;-87
2021/12/07 06:04:47;;;;;;;8.02;6.88;;;1.80;99.90;;;;;;5077918;28;20107;-87
2021/12/07 06:07:14;;;;;;;8.27;6.72;;;1.70;99.90;;;;;;5078709;28;20049;-87
2021/12/07 06:09:41;;;;;;;6.57;5.95;;;1.70;99.90;;;;;;5077834;28;20060;-87
2021/12/07 06:12:10;;;;;;;8.07;6.38;;;1.80;99.90;;;;;;5087100;28;20048;-88
2021/12/07 06:14:42;;;;;;;7.13;6.43;;;1.80;99.90;;;;;;5097099;28;20124;-88
2021/12/07 06:17:11;;;;;;;7.80;6.95;;;1.80;99.90;;;;;;5096947;28;20052;-86
2021/12/07 06:19:38;;;;;;;7.85;7.05;;;1.90;99.90;;;;;;5097177;28;20135;-88
2021/12/07 06:22:06;;;;;;;11.05;6.80;;;1.90;99.90;;;;;;5096621;28;20081;-87
2021/12/07 06:24:33;;;;;;;7.22;6.45;;;1.90;99.90;;;;;;5096346;28;20054;-88
2021/12/07 06:27:00;;;;;;;8.05;6.75;;;1.80;99.90;;;;;;5097154;28;20518;-87
2021/12/07 06:29:27;;;;;;;8.07;7.22;;;1.70;99.90;;;;;;5096355;28;20055;-87
2021/12/07 06:31:55;;;;;;;7.75;6.28;;;1.70;99.90;;;;;;5096283;28;20048;-88
2021/12/07 06:34:24;;;;;;;6.78;6.07;;;1.80;99.90;;;;;;5096914;28;20074;-87
2021/12/07 06:36:51;;;;;;;8.45;6.72;;;1.80;99.90;;;;;;5097182;28;20055;-87
2021/12/07 06:39:20;;;;;;;7.85;6.32;;;1.80;99.90;;;;;;5096573;28;20149;-87
2021/12/07 06:41:47;;;;;;;6.70;6.00;;;1.90;99.90;;;;;;5096427;28;20115;-87
2021/12/07 06:44:14;;;;;;;6.40;5.70;;;1.90;99.90;;;;;;5096710;28;20044;-88
2021/12/07 06:46:41;;;;;;;6.43;5.80;;;2.00;99.90;;;;;;5097549;28;20098;-87
2021/12/07 06:49:09;;;;;;;6.32;5.72;;;2.00;99.90;;;;;;5097663;28;20080;-87
2021/12/07 06:51:35;;;;;;;7.75;6.85;;;2.00;99.90;;;;;;5096409;28;20112;-87
2021/12/07 06:54:05;;;;;;;6.78;6.10;;;1.90;99.90;;;;;;5096435;28;20044;-87
2021/12/07 06:56:31;;;;;;;6.25;5.70;;;2.00;99.90;;;;;;5096037;28;20435;-87
2021/12/07 06:58:58;;;;;;;6.30;5.55;;;1.90;99.90;;;;;;5096981;28;20046;-87
2021/12/07 07:01:25;;;;;;;7.28;6.57;;;1.90;99.90;;;;;;5097123;28;20097;-87
2021/12/07 07:03:59;;;;;;;10.43;7.28;;;1.80;99.90;;;;;;5097288;28;20055;-87
2021/12/07 07:06:28;;;;;;;7.68;6.20;;;1.80;99.90;;;;;;5096615;28;20101;-87
2021/12/07 07:08:57;;;;;;;10.00;7.05;;;1.80;99.90;;;;;;5096574;28;20056;-88
2021/12/07 07:11:24;;;;;;;8.35;7.10;;;1.80;99.90;;;;;;5095941;28;20059;-88
2021/12/07 07:13:51;;;;;;;38.42;28.02;;;1.70;99.90;;;;;;5099109;28;20120;-88
2021/12/07 07:16:18;;;;;;;10.88;9.60;;;1.70;99.90;;;;;;5105621;28;20052;-88
2021/12/07 07:18:45;;;;;;;12.13;9.05;;;1.80;99.90;;;;;;5097866;28;20105;-87
2021/12/07 07:21:12;;;;;;;8.98;7.47;;;1.80;99.90;;;;;;5096775;28;20484;-88
2021/12/07 07:23:39;;;;;;;8.57;7.53;;;1.90;99.90;;;;;;5096839;28;20048;-88
2021/12/07 07:26:06;;;;;;;12.15;8.43;;;1.90;99.90;;;;;;5096979;28;20050;-88
2021/12/07 07:28:34;;;;;;;7.82;7.00;;;2.00;99.90;;;;;;5096533;28;20078;-87
2021/12/07 07:31:03;;;;;;;7.75;6.60;;;1.90;99.90;;;;;;5096275;28;20040;-87
2021/12/07 07:33:33;;;;;;;7.78;6.80;;;2.00;99.90;;;;;;5096729;28;20052;-87
2021/12/07 07:36:01;;;;;;;7.43;6.72;;;2.00;99.90;;;;;;5095407;28;20056;-87
2021/12/07 07:38:28;;;;;;;7.28;6.25;;;1.90;99.90;;;;;;5095606;28;20052;-87
2021/12/07 07:40:56;;;;;;;9.77;7.25;;;1.90;99.90;;;;;;5095190;28;20143;-87
2021/12/07 07:43:23;;;;;;;7.95;7.15;;;2.00;99.90;;;;;;5095477;28;20074;-87
2021/12/07 07:45:52;;;;;;;7.22;6.25;;;2.00;99.90;;;;;;5095185;28;20480;-87
2021/12/07 07:48:21;;;;;;;6.70;5.43;;;2.00;99.90;;;;;;5095336;28;20056;-87
2021/12/07 07:50:50;;;;;;;7.15;6.38;;;2.00;99.90;;;;;;5093952;28;20383;-88
2021/12/07 07:53:17;;;;;;;6.50;5.80;;;2.00;99.90;;;;;;5094018;28;20052;-87
2021/12/07 07:55:49;;;;;;;7.10;5.57;;;2.00;99.90;;;;;;5093569;28;20043;-88
2021/12/07 07:58:17;;;;;;;13.00;9.02;;;2.00;99.90;;;;;;5093445;28;20097;-87
2021/12/07 08:00:45;;;;;;;8.70;6.93;;;2.10;99.90;;;;;;5093271;28;20044;-87
2021/12/07 08:03:12;;;;;;;9.10;6.60;;;2.10;99.90;;;;;;5093403;28;20398;-87
2021/12/07 08:05:39;;;;;;;9.27;7.18;;;2.10;99.90;;;;;;5093708;28;20048;-88
2021/12/07 08:08:06;;;;;;;9.98;7.15;;;2.10;99.90;;;;;;5093167;28;20131;-88
2021/12/07 08:10:33;;;;;;;8.27;6.45;;;2.10;99.90;;;;;;5095239;28;20074;-87
2021/12/07 08:13:03;;;;;;;8.93;6.28;;;2.00;99.90;;;;;;5092835;28;20098;-87
2021/12/07 08:15:35;;;;;;;7.85;6.28;;;2.00;99.90;;;;;;5093426;28;20139;-88
2021/12/07 08:18:03;;;;;;;8.50;5.53;;;2.00;99.90;;;;;;5094390;28;20056;-87
2021/12/07 08:20:30;;;;;;;8.38;5.93;;;2.00;99.90;;;;;;5093066;28;20044;-88
2021/12/07 08:22:58;;;;;;;6.78;5.68;;;2.00;99.90;;;;;;5092709;28;20090;-87
2021/12/07 08:25:25;;;;;;;8.82;6.03;;;2.00;99.90;;;;;;5092941;28;20050;-87
2021/12/07 08:27:52;;;;;;;6.10;5.45;;;2.10;99.90;;;;;;5093272;28;20406;-89
2021/12/07 08:30:18;;;;;;;5.72;5.22;;;2.00;99.90;;;;;;5093297;28;20496;-88
2021/12/07 08:32:45;;;;;;;9.05;5.85;;;2.00;99.90;;;;;;5110279;28;20168;-89
2021/12/07 08:35:16;;;;;;;7.50;6.70;;;2.10;99.90;;;;;;5099721;28;20087;-89
2021/12/07 08:37:46;;;;;;;6.50;5.90;;;2.10;99.90;;;;;;5094805;28;20116;-89
2021/12/07 08:40:16;;;;;;;5.88;5.30;;;2.20;99.90;;;;;;5095450;28;20139;-88
2021/12/07 08:42:43;;;;;;;7.28;5.50;;;2.30;99.90;;;;;;5087384;28;20048;-89
2021/12/07 08:45:10;;;;;;;7.40;6.20;;;2.30;99.90;;;;;;5095552;28;20056;-89
2021/12/07 08:47:37;;;;;;;5.55;5.05;;;2.30;99.90;;;;;;5095250;28;20475;-88
2021/12/07 08:50:13;;;;;;;6.68;5.97;;;2.30;99.90;;;;;;5094061;28;20048;-88
2021/12/07 08:52:41;;;;;;;6.65;5.97;;;2.40;99.90;;;;;;5094025;28;20052;-89
2021/12/07 09:00:34;;;;;;;10.43;7.95;;;2.40;99.90;;;;;;5092502;28;20135;-88
2021/12/07 09:03:01;;;;;;;8.20;7.10;;;2.50;99.90;;;;;;5086290;28;20056;-89
2021/12/07 09:05:28;;;;;;;7.75;6.10;;;2.60;99.90;;;;;;5092425;28;20059;-88
2021/12/07 09:07:55;;;;;;;7.05;5.88;;;2.60;99.90;;;;;;5086346;28;20109;-88
2021/12/07 09:10:22;;;;;;;6.88;6.07;;;2.60;99.90;;;;;;5092392;28;20052;-88
2021/12/07 09:12:49;;;;;;;6.20;5.60;;;2.60;99.90;;;;;;5085520;28;20080;-88
2021/12/07 09:15:16;;;;;;;6.13;5.53;;;2.70;99.90;;;;;;5096113;28;20059;-88
2021/12/07 09:17:43;;;;;;;6.53;5.15;;;2.80;99.90;;;;;;5085131;28;20106;-88
2021/12/07 09:20:15;;;;;;;6.70;5.57;;;2.90;99.90;;;;;;5093315;28;20456;-88
2021/12/07 09:22:44;;;;;;;5.45;4.95;;;3.10;99.90;;;;;;5093203;28;20074;-88
2021/12/07 09:25:12;;;;;;;5.50;5.00;;;3.20;99.90;;;;;;5093370;28;20060;-88
2021/12/07 09:27:39;;;;;;;6.68;5.70;;;3.20;99.90;;;;;;5093364;28;20463;-88
2021/12/07 09:30:09;;;;;;;7.72;6.53;;;3.30;99.90;;;;;;5087360;28;20074;-88
2021/12/07 09:32:36;;;;;;;9.23;6.70;;;3.40;99.90;;;;;;5095581;28;20445;-88
2021/12/07 09:35:06;;;;;;;10.63;7.40;;;3.40;99.90;;;;;;5091774;28;20063;-88
2021/12/07 09:37:33;;;;;;;12.00;8.70;;;3.30;99.90;;;;;;5097043;28;20051;-89
2021/12/07 09:40:03;;;;;;;20.20;14.25;;;3.10;99.90;;;;;;5092108;28;20127;-88
2021/12/07 09:42:30;;;;;;;15.02;10.85;;;3.20;99.90;;;;;;5097052;28;20135;-89
2021/12/07 09:44:58;;;;;;;16.42;11.15;;;3.40;99.90;;;;;;5091207;28;20052;-89
2021/12/07 09:47:25;;;;;;;12.25;8.00;;;3.50;99.90;;;;;;5098587;28;20044;-89
2021/12/07 09:49:51;;;;;;;9.48;7.07;;;3.60;99.90;;;;;;5099621;28;20495;-88
2021/12/07 09:52:18;;;;;;;9.45;7.15;;;3.70;99.90;;;;;;5100154;28;20048;-89
2021/12/07 09:54:45;;;;;;;9.10;6.35;;;3.90;99.90;;;;;;5090300;28;20048;-88
2021/12/07 09:57:12;;;;;;;7.40;5.55;;;3.90;99.90;;;;;;5097699;28;20052;-88
2021/12/07 09:59:39;;;;;;;12.40;6.35;;;3.90;99.90;;;;;;5098209;28;20086;-88
2021/12/07 10:02:07;;;;;;;17.00;6.90;;;3.90;99.90;;;;;;5092635;28;20052;-88
2021/12/07 10:04:35;;;;;;;8.48;5.07;;;3.80;99.90;;;;;;5097094;28;20072;-88
2021/12/07 10:07:03;;;;;;;7.18;5.28;;;4.00;99.90;;;;;;5091452;28;20055;-88
2021/12/07 10:09:30;;;;;;;6.18;5.10;;;4.00;99.90;;;;;;5097333;28;20048;-89
2021/12/07 10:11:57;;;;;;;9.23;6.15;;;4.00;99.90;;;;;;5090879;28;20060;-88
2021/12/07 10:14:39;;;;;;;11.00;6.45;;;3.90;99.90;;;;;;5096585;28;20048;-88
2021/12/07 10:17:06;;;;;;;8.43;4.97;;;3.80;99.90;;;;;;5092159;28;20135;-88
2021/12/07 10:19:37;;;;;;;14.13;6.55;;;3.80;99.90;;;;;;5096722;28;20048;-89
2021/12/07 10:22:16;;;;;;;8.10;5.43;;;3.80;99.90;;;;;;5092153;28;20052;-88
2021/12/07 10:24:48;;;;;;;5.15;4.45;;;3.90;99.90;;;;;;5081088;28;20226;-88
2021/12/07 10:27:31;;;;;;;5.45;4.30;;;3.90;99.90;;;;;;5097285;28;20056;-88
2021/12/07 10:29:58;;;;;;;7.13;4.72;;;3.80;99.90;;;;;;5097050;28;20119;-88
2021/12/07 10:32:25;;;;;;;5.65;3.97;;;3.80;99.90;;;;;;5097073;28;20097;-89
2021/12/07 10:34:52;;;;;;;6.20;4.30;;;3.80;99.90;;;;;;5090212;28;20055;-87
2021/12/07 10:37:20;;;;;;;18.92;9.75;;;3.70;99.90;;;;;;5096723;28;20169;-88
2021/12/07 10:39:55;;;;;;;5.07;4.25;;;3.70;99.90;;;;;;5089465;28;20051;-88
2021/12/07 10:42:27;;;;;;;7.80;4.78;;;3.70;99.90;;;;;;5097311;28;20052;-88
2021/12/07 10:45:09;;;;;;;29.05;15.02;;;3.50;99.90;;;;;;5090305;28;20139;-88
2021/12/07 10:47:36;;;;;;;11.23;7.22;;;3.60;99.90;;;;;;5096723;28;20135;-88
2021/12/07 10:50:09;;;;;;;12.82;6.70;;;3.60;99.90;;;;;;5091738;28;20078;-88
2021/12/07 10:52:42;;;;;;;14.13;8.45;;;3.80;99.90;;;;;;5097355;28;20048;-87
2021/12/07 10:55:16;;;;;;;12.63;7.03;;;3.80;99.90;;;;;;5092859;28;20071;-88
2021/12/07 10:58:01;;;;;;;5.63;3.90;;;4.00;99.90;;;;;;5104791;28;20075;-88
2021/12/07 11:00:29;;;;;;;5.72;4.45;;;4.00;99.90;;;;;;5096227;28;20051;-87
2021/12/07 11:03:07;;;;;;;5.13;4.45;;;4.10;99.90;;;;;;5089669;28;20085;-88
2021/12/07 11:05:46;;;;;;;14.35;7.95;;;4.10;99.90;;;;;;5105738;28;20040;-88
2021/12/07 11:08:14;;;;;;;11.40;6.30;;;4.10;99.90;;;;;;5099320;28;20055;-88
2021/12/07 11:10:47;;;;;;;12.40;7.40;;;4.00;99.90;;;;;;5096292;28;20051;-88
2021/12/07 11:13:26;;;;;;;13.98;7.78;;;3.90;99.90;;;;;;5096275;28;20117;-88
2021/12/07 11:15:56;;;;;;;6.25;4.75;;;4.00;99.90;;;;;;5096264;28;20079;-88
2021/12/07 11:18:31;;;;;;;5.65;4.50;;;4.10;99.90;;;;;;5094119;28;20496;-88
2021/12/07 11:21:12;;;;;;;19.65;11.45;;;4.30;99.90;;;;;;5088418;28;20079;-88
2021/12/07 11:23:45;;;;;;;11.88;8.20;;;4.30;99.90;;;;;;5094369;28;20079;-88
2021/12/07 11:31:36;;;;;;;50.55;29.40;;;4.60;99.90;;;;;;5095484;28;20043;-88
2021/12/07 11:34:06;;;;;;;16.83;8.77;;;4.70;99.90;;;;;;5088986;28;20534;-88
2021/12/07 11:36:36;;;;;;;8.40;6.32;;;4.40;99.90;;;;;;5094267;28;20044;-88
2021/12/07 11:39:22;;;;;;;4.00;3.05;;;4.40;99.90;;;;;;5088765;28;20059;-88
2021/12/07 11:41:53;;;;;;;13.63;8.15;;;4.50;99.90;;;;;;5093986;28;20052;-87
2021/12/07 11:44:22;;;;;;;6.47;5.20;;;4.50;99.90;;;;;;5094389;28;20478;-87
2021/12/07 11:46:51;;;;;;;9.70;6.90;;;4.50;99.90;;;;;;5086771;28;20063;-88
2021/12/07 11:49:32;;;;;;;3.15;2.95;;;4.50;99.90;;;;;;5093862;28;20047;-88
2021/12/07 11:52:03;;;;;;;3.20;2.90;;;4.70;99.90;;;;;;5088375;28;20044;-87
2021/12/07 11:54:36;;;;;;;2.05;1.95;;;4.80;99.90;;;;;;5093621;28;20051;-88
2021/12/07 11:57:05;;;;;;;2.28;1.88;;;4.90;99.90;;;;;;5088425;28;20044;-88
2021/12/07 11:59:32;;;;;;;1.60;1.50;;;5.00;99.90;;;;;;5093556;28;20229;-88
2021/12/07 12:01:59;;;;;;;1.35;1.27;;;5.00;99.90;;;;;;5087889;28;20074;-87
2021/12/07 12:04:26;;;;;;;1.45;1.35;;;4.90;99.90;;;;;;5093636;28;20048;-88
2021/12/07 12:06:55;;;;;;;1.73;1.63;;;4.80;99.90;;;;;;5086798;28;20048;-88
2021/12/07 12:09:23;;;;;;;2.50;2.17;;;4.80;99.90;;;;;;5093694;28;20478;-86
2021/12/07 12:12:34;;;;;;;2.38;1.88;;;4.80;99.90;;;;;;5086359;28;20139;-87
2021/12/07 12:15:28;;;;;;;2.03;1.58;;;4.90;99.90;;;;;;5093334;28;20466;-88
2021/12/07 12:17:58;;;;;;;;;;;4.90;99.90;;;;;;5093667;28;20059;-87
2021/12/07 12:20:48;;;;;;;0.70;0.70;;;4.80;99.90;;;;;;5095539;28;19926;-88
2021/12/07 12:23:47;;;;;;;0.75;0.75;;;4.70;99.90;;;;;;5109340;28;20047;-88
2021/12/07 12:26:23;;;;;;;0.70;0.70;;;4.60;99.90;;;;;;5022042;28;20135;-87
2021/12/07 12:28:51;;;;;;;0.52;0.52;;;4.50;99.90;;;;;;5087202;28;20048;-87
2021/12/07 12:31:40;;;;;;;2.45;0.80;;;4.50;99.90;;;;;;5092738;28;20043;-86
2021/12/07 12:34:19;;;;;;;0.75;0.75;;;4.50;99.90;;;;;;5088421;28;20134;-87
2021/12/07 12:37:00;;;;;;;0.63;0.63;;;4.50;99.90;;;;;;5093102;28;20048;-88
2021/12/07 12:39:55;;;;;;;0.80;0.80;;;4.50;99.90;;;;;;5092898;28;20130;-87
2021/12/07 12:42:43;;;;;;;1.00;0.80;;;4.50;99.90;;;;;;5090114;28;20044;-87
2021/12/07 12:45:13;;;;;;;0.98;0.98;;;4.50;99.90;;;;;;5100239;28;20052;-88
2021/12/07 12:47:40;;;;;;;1.25;1.15;;;4.50;99.90;;;;;;5092715;28;20078;-87
2021/12/07 12:50:21;;;;;;;0.90;0.90;;;4.50;99.90;;;;;;5092671;28;20483;-88
2021/12/07 12:52:55;;;;;;;1.35;1.25;;;4.50;99.90;;;;;;5092747;28;20470;-87
2021/12/07 12:55:26;;;;;;;1.13;1.13;;;4.50;99.90;;;;;;5093704;28;20048;-87
2021/12/07 12:57:53;;;;;;;1.48;0.90;;;4.40;99.90;;;;;;5085260;28;20412;-88
2021/12/07 13:00:21;;;;;;;1.60;1.50;;;4.40;99.90;;;;;;5092088;28;20048;-88
2021/12/07 13:03:09;;;;;;;3.92;3.00;;;4.20;99.90;;;;;;5086681;28;20075;-88
2021/12/07 13:05:37;;;;;;;2.70;2.50;;;4.10;99.90;;;;;;5092991;28;20068;-86
2021/12/07 13:08:15;;;;;;;1.45;1.35;;;4.00;99.90;;;;;;5087139;28;20145;-88
2021/12/07 13:11:02;;;;;;;1.83;1.30;;;3.80;99.90;;;;;;5101060;28;20502;-88
2021/12/07 13:13:34;;;;;;;1.65;1.50;;;3.70;99.90;;;;;;5092870;28;20048;-87
2021/12/07 13:16:15;;;;;;;5.38;2.90;;;3.80;99.90;;;;;;5087430;28;20040;-88
2021/12/07 13:18:44;;;;;;;6.80;3.30;;;3.70;99.90;;;;;;5092247;28;20052;-88
2021/12/07 13:21:23;;;;;;;2.83;2.13;;;3.70;99.90;;;;;;5092581;28;20121;-88
2021/12/07 13:23:58;;;;;;;3.88;2.30;;;3.70;99.90;;;;;;5092124;28;20131;-88
2021/12/07 13:26:25;;;;;;;4.32;2.05;;;3.70;99.90;;;;;;5093522;28;20526;-88
2021/12/07 13:29:23;;;;;;;2.30;1.45;;;3.70;99.90;;;;;;5085495;28;20131;-87
2021/12/07 13:31:54;;;;;;;3.05;2.20;;;3.70;99.90;;;;;;5092505;28;20152;-88
2021/12/07 13:34:27;;;;;;;2.92;2.08;;;3.60;99.90;;;;;;5092537;28;20048;-87
2021/12/07 13:37:03;;;;;;;2.10;1.90;;;3.60;99.90;;;;;;5086040;28;20117;-87
2021/12/07 13:39:40;;;;;;;2.55;1.08;;;3.50;99.90;;;;;;5106025;28;20062;-88
2021/12/07 13:42:28;;;;;;;2.78;2.00;;;3.40;99.90;;;;;;5095012;28;20062;-87
2021/12/07 13:45:03;;;;;;;4.50;4.10;;;3.40;99.90;;;;;;5086000;28;20052;-88
2021/12/07 13:47:34;;;;;;;3.10;2.80;;;3.40;99.90;;;;;;5092422;28;20052;-88
2021/12/07 13:50:10;;;;;;;3.42;2.60;;;3.50;99.90;;;;;;5086829;28;20048;-88
2021/12/07 13:52:41;;;;;;;2.58;2.38;;;3.50;99.90;;;;;;5092129;28;20527;-88
2021/12/07 13:55:12;;;;;;;1.52;1.42;;;3.50;99.90;;;;;;5088047;28;20058;-88
2021/12/07 13:57:41;;;;;;;1.30;1.20;;;3.40;99.90;;;;;;5092973;28;20040;-88
2021/12/07 14:00:22;;;;;;;2.90;1.10;;;3.20;99.90;;;;;;5093271;28;20070;-88
2021/12/07 14:02:55;;;;;;;2.17;1.60;;;3.20;99.90;;;;;;5084575;28;20055;-88
2021/12/07 14:05:26;;;;;;;;;;;3.30;99.90;;;;;;5092470;28;20056;-87
2021/12/07 14:07:56;;;;;;;3.83;1.48;;;3.40;99.90;;;;;;5085634;28;20023;-88
2021/12/07 14:10:33;;;;;;;3.80;2.60;;;3.30;99.90;;;;;;5092076;28;20052;-88
2021/12/07 14:13:02;;;;;;;1.48;1.38;;;3.30;99.90;;;;;;5092594;28;20060;-87
2021/12/07 14:15:35;;;;;;;1.27;1.17;;;3.30;99.90;;;;;;5090430;28;20104;-88
2021/12/07 14:18:13;;;;;;;2.15;2.05;;;3.20;99.90;;;;;;5104415;28;20048;-87
2021/12/07 14:20:48;;;;;;;2.50;2.30;;;3.20;99.90;;;;;;5095447;28;20055;-88
2021/12/07 14:23:28;;;;;;;4.40;2.75;;;3.20;99.90;;;;;;5091959;28;20414;-88
2021/12/07 14:26:06;;;;;;;6.03;2.20;;;3.30;99.90;;;;;;5096488;28;20048;-88
2021/12/07 14:28:55;;;;;;;1.50;1.35;;;3.20;99.90;;;;;;5094523;28;20407;-88
2021/12/07 14:31:28;;;;;;;4.63;3.20;;;3.20;99.90;;;;;;5096688;28;20044;-87
2021/12/07 14:34:00;;;;;;;3.70;3.40;;;3.30;99.90;;;;;;5096204;28;20048;-87
2021/12/07 14:36:33;;;;;;;3.95;3.42;;;3.20;99.90;;;;;;5093617;28;20178;-87
2021/12/07 14:39:14;;;;;;;3.33;3.13;;;2.90;99.90;;;;;;5089765;28;20094;-88
2021/12/07 14:42:04;;;;;;;5.78;4.05;;;3.00;99.90;;;;;;5095208;28;20071;-88
2021/12/07 14:44:36;;;;;;;4.18;3.78;;;3.00;99.90;;;;;;5096036;28;20106;-87